Time;durP1;ratioP1;P1;durP2;ratioP2;P2;SDS_P1;SDS_P2;PMS_P1;PMS_P2;Temp;Humidity;BMP_temperature;BMP_pressure;BME280_temperature;BME280_humidity;BME280_pressure;Samples;Min_cycle;Max_cycle;Signal;HPM_P1;HPM_P2
2023/07/10 00:02:12;;;;;;;27.02;19.20;;;;;;;;;;5013806;28;20198;-75
2023/07/10 00:04:37;;;;;;;23.38;18.33;;;;;;;;;;5027133;28;20178;-74
2023/07/10 00:07:03;;;;;;;26.13;19.90;;;;;;;;;;5007646;28;20519;-74
2023/07/10 00:09:28;;;;;;;29.02;20.63;;;;;;;;;;5020222;28;20542;-74
2023/07/10 00:11:54;;;;;;;25.60;20.15;;;;;;;;;;5016569;28;20216;-75
2023/07/10 00:14:22;;;;;;;27.23;22.05;;;;;;;;;;5021923;28;20236;-74
2023/07/10 00:16:49;;;;;;;23.83;18.67;;;;;;;;;;5028416;28;20680;-75
2023/07/10 00:19:15;;;;;;;29.70;21.73;;;;;;;;;;5014859;28;20697;-75
2023/07/10 00:21:40;;;;;;;33.95;23.55;;;;;;;;;;5021468;28;20209;-74
2023/07/10 00:24:06;;;;;;;32.15;23.70;;;;;;;;;;5014688;28;20187;-75
2023/07/10 00:26:32;;;;;;;29.42;21.48;;;;;;;;;;5028755;28;20244;-74
2023/07/10 00:29:00;;;;;;;28.60;23.38;;;;;;;;;;5028252;28;20198;-75
2023/07/10 00:31:26;;;;;;;28.27;21.38;;;;;;;;;;5026199;28;20529;-74
2023/07/10 00:33:51;;;;;;;32.72;24.30;;;;;;;;;;5025483;28;20274;-75
2023/07/10 00:36:26;;;;;;;33.63;23.27;;;;;;;;;;5024483;28;20189;-74
2023/07/10 00:38:52;;;;;;;34.40;23.92;;;;;;;;;;5004692;28;20194;-74
2023/07/10 00:41:17;;;;;;;32.88;24.75;;;;;;;;;;5020409;28;20265;-75
2023/07/10 00:43:49;;;;;;;31.90;23.83;;;;;;;;;;5017986;28;20200;-74
2023/07/10 00:46:21;;;;;;;38.95;24.15;;;;;;;;;;5009681;28;20479;-74
2023/07/10 00:48:52;;;;;;;36.58;24.58;;;;;;;;;;5025897;28;20672;-75
2023/07/10 00:51:34;;;;;;;31.05;24.20;;;;;;;;;;5024366;28;20302;-75
2023/07/10 00:54:01;;;;;;;28.00;22.83;;;;;;;;;;5024724;28;20189;-75
2023/07/10 00:56:31;;;;;;;32.10;24.38;;;;;;;;;;5026834;28;20240;-75
2023/07/10 00:58:56;;;;;;;37.05;23.70;;;;;;;;;;5019824;28;20575;-75
2023/07/10 01:01:26;;;;;;;26.40;22.65;;;;;;;;;;5026551;28;20226;-75
2023/07/10 01:03:52;;;;;;;33.15;22.85;;;;;;;;;;5024345;28;20202;-74
2023/07/10 01:06:30;;;;;;;27.35;22.25;;;;;;;;;;5027865;28;20727;-74
2023/07/10 01:08:56;;;;;;;27.42;21.50;;;;;;;;;;5024689;28;20288;-75
2023/07/10 01:11:21;;;;;;;30.23;20.73;;;;;;;;;;5011208;28;20254;-74
2023/07/10 01:13:49;;;;;;;29.73;21.00;;;;;;;;;;5022183;28;20221;-75
2023/07/10 01:16:16;;;;;;;28.52;22.17;;;;;;;;;;5025174;28;20265;-74
2023/07/10 01:18:41;;;;;;;31.05;21.85;;;;;;;;;;5018488;28;20737;-74
2023/07/10 01:21:09;;;;;;;28.63;22.10;;;;;;;;;;5025079;28;20285;-74
2023/07/10 01:23:34;;;;;;;31.42;23.45;;;;;;;;;;5025250;28;20244;-74
2023/07/10 01:26:02;;;;;;;36.25;23.05;;;;;;;;;;5021555;28;20191;-74
2023/07/10 01:28:28;;;;;;;33.65;23.30;;;;;;;;;;5028798;28;20248;-74
2023/07/10 01:30:56;;;;;;;33.33;24.80;;;;;;;;;;5025255;28;20186;-74
2023/07/10 01:33:28;;;;;;;35.92;25.95;;;;;;;;;;5017032;28;20205;-74
2023/07/10 01:35:59;;;;;;;37.63;25.00;;;;;;;;;;5013560;28;20195;-75
2023/07/10 01:38:36;;;;;;;35.53;25.75;;;;;;;;;;5029370;28;20198;-75
2023/07/10 01:41:12;;;;;;;43.95;27.23;;;;;;;;;;5021004;28;20284;-75
2023/07/10 01:43:38;;;;;;;40.35;26.02;;;;;;;;;;5023798;28;20213;-74
2023/07/10 01:46:17;;;;;;;35.20;27.70;;;;;;;;;;5022498;28;20193;-75
2023/07/10 01:48:42;;;;;;;36.10;26.65;;;;;;;;;;5028140;28;20190;-74
2023/07/10 01:51:07;;;;;;;37.70;26.30;;;;;;;;;;5028263;28;20182;-74
2023/07/10 01:53:33;;;;;;;37.78;26.63;;;;;;;;;;5015798;28;20333;-74
2023/07/10 01:55:58;;;;;;;37.60;26.20;;;;;;;;;;5019968;28;20194;-74
2023/07/10 01:58:24;;;;;;;40.97;29.48;;;;;;;;;;5030924;28;20673;-74
2023/07/10 02:00:49;;;;;;;39.67;28.48;;;;;;;;;;5034133;28;20221;-74
2023/07/10 02:03:14;;;;;;;37.60;26.30;;;;;;;;;;5026614;28;20557;-74
2023/07/10 02:05:40;;;;;;;37.63;27.83;;;;;;;;;;5024458;28;20190;-74
2023/07/10 02:08:06;;;;;;;35.03;25.38;;;;;;;;;;5019374;28;20195;-74
2023/07/10 02:10:32;;;;;;;34.53;27.15;;;;;;;;;;5035900;28;20248;-74
2023/07/10 02:12:57;;;;;;;45.47;28.20;;;;;;;;;;5021966;28;20606;-74
2023/07/10 02:15:22;;;;;;;37.38;28.42;;;;;;;;;;5030102;28;20222;-74
2023/07/10 02:17:48;;;;;;;42.38;28.92;;;;;;;;;;5031271;28;20194;-74
2023/07/10 02:20:13;;;;;;;41.92;29.15;;;;;;;;;;5029747;28;20778;-75
2023/07/10 02:22:38;;;;;;;40.05;29.42;;;;;;;;;;5038468;28;20198;-75
2023/07/10 02:25:04;;;;;;;38.92;30.58;;;;;;;;;;5017935;28;20191;-75
2023/07/10 02:27:30;;;;;;;42.25;30.33;;;;;;;;;;5026147;28;20183;-75
2023/07/10 02:29:55;;;;;;;40.35;28.95;;;;;;;;;;5015491;28;20202;-74
2023/07/10 02:32:20;;;;;;;41.25;30.38;;;;;;;;;;5021410;28;20634;-74
2023/07/10 02:34:46;;;;;;;42.33;30.65;;;;;;;;;;5020385;28;20190;-74
2023/07/10 02:37:11;;;;;;;44.88;30.13;;;;;;;;;;5028843;28;20653;-73
2023/07/10 02:39:36;;;;;;;36.38;27.67;;;;;;;;;;5021878;28;20273;-74
2023/07/10 02:42:02;;;;;;;41.22;29.20;;;;;;;;;;5022309;28;20232;-74
2023/07/10 02:44:30;;;;;;;46.28;30.50;;;;;;;;;;5025013;28;20277;-73
2023/07/10 02:46:55;;;;;;;45.38;31.88;;;;;;;;;;5026489;28;20190;-73
2023/07/10 02:49:20;;;;;;;41.83;31.60;;;;;;;;;;5022156;28;20187;-74
2023/07/10 02:51:46;;;;;;;48.33;32.55;;;;;;;;;;5025195;28;20194;-75
2023/07/10 02:54:12;;;;;;;44.40;31.92;;;;;;;;;;5018191;28;20225;-74
2023/07/10 02:56:38;;;;;;;43.97;31.80;;;;;;;;;;5017303;28;20206;-74
2023/07/10 02:59:03;;;;;;;48.95;34.47;;;;;;;;;;5027613;28;20275;-74
2023/07/10 03:01:29;;;;;;;47.90;33.63;;;;;;;;;;5025670;28;20222;-74
2023/07/10 03:03:54;;;;;;;42.83;32.72;;;;;;;;;;5016333;28;20205;-74
2023/07/10 03:06:22;;;;;;;41.33;31.42;;;;;;;;;;5019509;28;20198;-74
2023/07/10 03:08:47;;;;;;;44.10;32.17;;;;;;;;;;5026785;28;20225;-74
2023/07/10 03:11:14;;;;;;;37.38;25.92;;;;;;;;;;5008455;28;20218;-74
2023/07/10 03:13:39;;;;;;;46.15;32.13;;;;;;;;;;5029973;28;20194;-74
2023/07/10 03:16:08;;;;;;;43.00;31.88;;;;;;;;;;5023808;28;20213;-74
2023/07/10 03:18:33;;;;;;;41.10;32.97;;;;;;;;;;5029137;28;20190;-73
2023/07/10 03:20:59;;;;;;;45.75;30.42;;;;;;;;;;5026707;28;20225;-74
2023/07/10 03:23:24;;;;;;;41.08;31.10;;;;;;;;;;5023839;28;20248;-74
2023/07/10 03:25:50;;;;;;;41.10;29.83;;;;;;;;;;5024015;28;20190;-74
2023/07/10 03:28:15;;;;;;;41.53;30.05;;;;;;;;;;5024857;28;20336;-74
2023/07/10 03:30:41;;;;;;;41.28;28.67;;;;;;;;;;5025708;28;20205;-74
2023/07/10 03:33:06;;;;;;;42.65;28.63;;;;;;;;;;5027722;28;20194;-75
2023/07/10 03:35:32;;;;;;;36.83;26.17;;;;;;;;;;5019721;28;20198;-75
2023/07/10 03:37:57;;;;;;;37.67;25.75;;;;;;;;;;5026095;28;20281;-73
2023/07/10 03:40:23;;;;;;;33.05;26.60;;;;;;;;;;5024260;28;20238;-74
2023/07/10 03:42:48;;;;;;;38.78;26.42;;;;;;;;;;5028213;28;20185;-74
2023/07/10 03:45:14;;;;;;;29.13;23.88;;;;;;;;;;5023785;28;20197;-74
2023/07/10 03:47:39;;;;;;;28.95;21.35;;;;;;;;;;5029309;28;20405;-74
2023/07/10 03:50:06;;;;;;;29.98;22.83;;;;;;;;;;5025610;28;20581;-74
2023/07/10 03:52:31;;;;;;;27.75;21.55;;;;;;;;;;5025354;28;20186;-73
2023/07/10 03:54:56;;;;;;;26.30;19.42;;;;;;;;;;5019537;28;20194;-73
2023/07/10 03:57:22;;;;;;;27.65;19.25;;;;;;;;;;5027665;28;20206;-73
2023/07/10 03:59:47;;;;;;;29.58;19.65;;;;;;;;;;5020063;28;20263;-74
2023/07/10 04:02:12;;;;;;;22.02;18.58;;;;;;;;;;5017551;28;20202;-73
2023/07/10 04:04:38;;;;;;;26.00;19.40;;;;;;;;;;5026591;28;20230;-73
2023/07/10 04:07:03;;;;;;;26.23;19.48;;;;;;;;;;5024207;28;20615;-73
2023/07/10 04:09:29;;;;;;;27.45;17.55;;;;;;;;;;5026392;28;20228;-74
2023/07/10 04:11:54;;;;;;;23.88;17.00;;;;;;;;;;5025385;28;20635;-73
2023/07/10 04:14:19;;;;;;;22.65;17.80;;;;;;;;;;5024794;28;20190;-74
2023/07/10 04:16:49;;;;;;;23.70;14.80;;;;;;;;;;5028684;28;20282;-74
2023/07/10 04:19:14;;;;;;;21.40;14.75;;;;;;;;;;5024029;28;20196;-73
2023/07/10 04:21:40;;;;;;;19.75;13.95;;;;;;;;;;5024698;28;20209;-73
2023/07/10 04:24:05;;;;;;;17.63;12.48;;;;;;;;;;5026497;28;20233;-74
2023/07/10 04:26:33;;;;;;;21.90;13.38;;;;;;;;;;5025552;28;20541;-73
2023/07/10 04:29:01;;;;;;;17.73;11.65;;;;;;;;;;5022079;28;20190;-73
2023/07/10 04:31:26;;;;;;;14.57;10.75;;;;;;;;;;5020151;28;20209;-73
2023/07/10 04:33:53;;;;;;;16.23;11.48;;;;;;;;;;5027433;28;20201;-73
2023/07/10 04:36:19;;;;;;;14.07;10.75;;;;;;;;;;5012353;28;20190;-73
2023/07/10 04:38:45;;;;;;;16.42;10.23;;;;;;;;;;5025737;28;20565;-73
2023/07/10 04:41:12;;;;;;;17.85;11.52;;;;;;;;;;5026122;28;20222;-73
2023/07/10 04:43:38;;;;;;;25.67;12.43;;;;;;;;;;5020141;28;20352;-73
2023/07/10 04:46:06;;;;;;;20.52;10.88;;;;;;;;;;5021905;28;20676;-74
2023/07/10 04:48:34;;;;;;;15.73;11.43;;;;;;;;;;5021365;28;20186;-74
2023/07/10 04:51:03;;;;;;;16.85;10.52;;;;;;;;;;5026666;28;20174;-73
2023/07/10 04:53:33;;;;;;;12.38;10.18;;;;;;;;;;5027244;28;20562;-72
2023/07/10 04:56:00;;;;;;;15.40;10.32;;;;;;;;;;5027890;28;20197;-73
2023/07/10 04:58:26;;;;;;;20.75;12.00;;;;;;;;;;5026489;28;20560;-73
2023/07/10 05:00:53;;;;;;;15.55;10.35;;;;;;;;;;5025965;28;20328;-74
2023/07/10 05:03:18;;;;;;;12.52;10.30;;;;;;;;;;5031097;28;20198;-73
2023/07/10 05:05:58;;;;;;;17.83;9.88;;;;;;;;;;5031168;28;20204;-73
2023/07/10 05:08:25;;;;;;;12.93;9.07;;;;;;;;;;5027510;28;20200;-74
2023/07/10 05:10:54;;;;;;;14.98;10.68;;;;;;;;;;5030070;28;20665;-72
2023/07/10 05:13:20;;;;;;;10.70;8.75;;;;;;;;;;5030747;28;20190;-72
2023/07/10 05:15:46;;;;;;;15.05;8.35;;;;;;;;;;5030182;28;20198;-73
2023/07/10 05:18:12;;;;;;;13.27;8.27;;;;;;;;;;5025092;28;20240;-74
2023/07/10 05:20:38;;;;;;;10.07;6.20;;;;;;;;;;5028722;28;20213;-71
2023/07/10 05:23:04;;;;;;;13.25;5.72;;;;;;;;;;5026986;28;20198;-73
2023/07/10 05:25:29;;;;;;;10.77;6.00;;;;;;;;;;5029978;28;20212;-73
2023/07/10 05:27:55;;;;;;;7.70;5.90;;;;;;;;;;5023498;28;20190;-73
2023/07/10 05:30:20;;;;;;;9.80;5.80;;;;;;;;;;5029134;28;20199;-73
2023/07/10 05:32:45;;;;;;;7.13;5.72;;;;;;;;;;5016270;28;20336;-71
2023/07/10 05:35:11;;;;;;;10.27;5.65;;;;;;;;;;5030492;28;20182;-74
2023/07/10 05:37:36;;;;;;;8.43;5.95;;;;;;;;;;5024691;28;20190;-71
2023/07/10 05:40:02;;;;;;;10.00;6.38;;;;;;;;;;5027912;28;20234;-72
2023/07/10 05:42:27;;;;;;;12.25;5.40;;;;;;;;;;5029620;28;20638;-72
2023/07/10 05:44:53;;;;;;;7.78;4.93;;;;;;;;;;5019675;28;20190;-72
2023/07/10 05:47:18;;;;;;;7.38;5.50;;;;;;;;;;5019473;28;20662;-71
2023/07/10 05:49:43;;;;;;;10.23;5.40;;;;;;;;;;5021233;28;20197;-73
2023/07/10 05:52:09;;;;;;;7.75;5.22;;;;;;;;;;5025558;28;20732;-72
2023/07/10 05:54:34;;;;;;;7.85;5.50;;;;;;;;;;5018485;28;20178;-72
2023/07/10 05:56:59;;;;;;;10.48;6.00;;;;;;;;;;5022778;28;20186;-72
2023/07/10 05:59:25;;;;;;;10.00;6.07;;;;;;;;;;5022333;28;20202;-71
2023/07/10 06:01:51;;;;;;;10.73;6.50;;;;;;;;;;5021180;28;20218;-72
2023/07/10 06:04:16;;;;;;;11.38;6.32;;;;;;;;;;5021413;28;20190;-72
2023/07/10 06:06:41;;;;;;;9.90;6.20;;;;;;;;;;5017043;28;20205;-71
2023/07/10 06:09:09;;;;;;;11.73;6.65;;;;;;;;;;5027574;28;20656;-71
2023/07/10 06:11:34;;;;;;;8.50;6.50;;;;;;;;;;5026751;28;20270;-72
2023/07/10 06:14:00;;;;;;;8.85;5.78;;;;;;;;;;5028221;28;20636;-71
2023/07/10 06:16:25;;;;;;;8.02;5.47;;;;;;;;;;5023056;28;20284;-72
2023/07/10 06:18:50;;;;;;;12.55;5.93;;;;;;;;;;5023690;28;20202;-72
2023/07/10 06:21:16;;;;;;;10.73;6.38;;;;;;;;;;5028987;28;20217;-71
2023/07/10 06:23:41;;;;;;;9.38;6.10;;;;;;;;;;5028854;28;20186;-71
2023/07/10 06:26:07;;;;;;;8.18;5.43;;;;;;;;;;5027825;28;20830;-71
2023/07/10 06:28:34;;;;;;;12.57;5.70;;;;;;;;;;5024246;28;20314;-71
2023/07/10 06:31:02;;;;;;;8.70;5.30;;;;;;;;;;5022066;28;20210;-71
2023/07/10 06:33:29;;;;;;;8.75;5.60;;;;;;;;;;5026915;28;20707;-71
2023/07/10 06:35:55;;;;;;;8.45;5.68;;;;;;;;;;5026445;28;20183;-71
2023/07/10 06:38:21;;;;;;;10.65;5.93;;;;;;;;;;5030405;28;20709;-71
2023/07/10 06:40:48;;;;;;;11.35;5.40;;;;;;;;;;5025260;28;20222;-71
2023/07/10 06:43:14;;;;;;;8.10;5.95;;;;;;;;;;5023979;28;20796;-71
2023/07/10 06:45:39;;;;;;;8.18;5.47;;;;;;;;;;5022626;28;20186;-71
2023/07/10 06:48:06;;;;;;;8.27;5.50;;;;;;;;;;5026160;28;20182;-71
2023/07/10 06:50:31;;;;;;;12.07;6.43;;;;;;;;;;5030450;28;20220;-71
2023/07/10 06:52:57;;;;;;;10.90;6.50;;;;;;;;;;5028993;28;20235;-72
2023/07/10 06:55:22;;;;;;;7.35;4.63;;;;;;;;;;5028151;28;20620;-71
2023/07/10 06:57:47;;;;;;;8.13;5.03;;;;;;;;;;5029094;28;20202;-72
2023/07/10 07:00:14;;;;;;;11.10;5.88;;;;;;;;;;5027019;28;20206;-72
2023/07/10 07:02:40;;;;;;;7.57;4.43;;;;;;;;;;5026150;28;20205;-71
2023/07/10 07:05:07;;;;;;;7.30;4.57;;;;;;;;;;5028620;28;20261;-72
2023/07/10 07:07:32;;;;;;;11.65;4.88;;;;;;;;;;5028445;28;20190;-72
2023/07/10 07:09:58;;;;;;;6.97;3.92;;;;;;;;;;5028378;28;20199;-72
2023/07/10 07:12:23;;;;;;;7.30;4.28;;;;;;;;;;5019222;28;20228;-72
2023/07/10 07:14:49;;;;;;;6.90;4.05;;;;;;;;;;5029754;28;20723;-71
2023/07/10 07:17:14;;;;;;;7.38;4.07;;;;;;;;;;5024604;28;21236;-72
2023/07/10 07:19:41;;;;;;;7.55;4.28;;;;;;;;;;5029593;28;20194;-72
2023/07/10 07:22:07;;;;;;;10.98;3.80;;;;;;;;;;5027197;28;20235;-71
2023/07/10 07:24:32;;;;;;;9.93;4.25;;;;;;;;;;5024235;28;20270;-73
2023/07/10 07:26:59;;;;;;;7.93;3.88;;;;;;;;;;5022641;28;20206;-71
2023/07/10 07:29:26;;;;;;;8.85;4.53;;;;;;;;;;5024248;28;20191;-71
2023/07/10 07:31:51;;;;;;;6.85;3.75;;;;;;;;;;5028780;28;20724;-71
2023/07/10 07:34:17;;;;;;;6.97;3.80;;;;;;;;;;5027932;28;20288;-72
2023/07/10 07:36:42;;;;;;;7.78;4.10;;;;;;;;;;5026551;28;20209;-71
2023/07/10 07:39:07;;;;;;;8.85;3.85;;;;;;;;;;5014495;28;20205;-71
2023/07/10 07:41:33;;;;;;;8.57;3.78;;;;;;;;;;5023503;28;20710;-71
2023/07/10 07:43:59;;;;;;;9.68;4.03;;;;;;;;;;5024149;28;20696;-71
2023/07/10 07:46:25;;;;;;;8.05;3.83;;;;;;;;;;5023970;28;20190;-71
2023/07/10 07:48:50;;;;;;;5.10;3.13;;;;;;;;;;4331263;28;10000715;-70
2023/07/10 07:51:16;;;;;;;7.18;3.33;;;;;;;;;;5020304;28;20560;-71
2023/07/10 07:53:42;;;;;;;6.07;3.28;;;;;;;;;;5024939;28;20198;-71
2023/07/10 07:56:07;;;;;;;11.65;3.80;;;;;;;;;;5024441;28;20265;-71
2023/07/10 07:58:33;;;;;;;6.55;2.95;;;;;;;;;;5021787;28;20200;-70
2023/07/10 08:00:59;;;;;;;7.72;2.85;;;;;;;;;;5024326;28;20254;-71
2023/07/10 08:03:26;;;;;;;7.60;2.88;;;;;;;;;;5023539;28;20229;-70
2023/07/10 08:05:52;;;;;;;6.72;2.20;;;;;;;;;;5022500;28;20792;-71
2023/07/10 08:08:18;;;;;;;7.22;2.60;;;;;;;;;;5023643;28;20221;-71
2023/07/10 08:10:46;;;;;;;7.18;2.38;;;;;;;;;;5024833;28;20556;-71
2023/07/10 08:13:12;;;;;;;7.18;2.40;;;;;;;;;;5019222;28;20189;-72
2023/07/10 08:15:40;;;;;;;8.20;2.80;;;;;;;;;;5023412;28;20198;-71
2023/07/10 08:18:07;;;;;;;9.07;2.75;;;;;;;;;;5023761;28;20194;-70
2023/07/10 08:20:34;;;;;;;4.70;2.05;;;;;;;;;;5024871;28;20293;-71
2023/07/10 08:23:02;;;;;;;7.75;2.17;;;;;;;;;;5022172;28;21014;-71
2023/07/10 08:25:29;;;;;;;6.47;2.30;;;;;;;;;;5024553;28;20669;-71
2023/07/10 08:27:57;;;;;;;6.00;2.15;;;;;;;;;;5019787;28;20204;-71
2023/07/10 08:30:22;;;;;;;9.27;2.70;;;;;;;;;;5017936;28;20251;-71
2023/07/10 08:32:50;;;;;;;8.32;2.63;;;;;;;;;;5023780;28;20701;-71
2023/07/10 08:35:17;;;;;;;6.28;1.85;;;;;;;;;;5023577;28;20216;-71
2023/07/10 08:37:44;;;;;;;7.75;2.75;;;;;;;;;;5027613;28;20190;-70
2023/07/10 08:40:33;;;;;;;8.32;2.47;;;;;;;;;;5028470;28;20234;-69
2023/07/10 08:43:14;;;;;;;6.90;2.25;;;;;;;;;;5025584;28;20289;-70
2023/07/10 08:45:41;;;;;;;7.43;2.72;;;;;;;;;;5028171;28;20189;-71
2023/07/10 08:48:40;;;;;;;7.72;2.53;;;;;;;;;;5015272;28;20206;-70
2023/07/10 08:51:27;;;;;;;7.80;3.03;;;;;;;;;;5021884;28;20233;-71
2023/07/10 08:54:02;;;;;;;7.40;2.70;;;;;;;;;;5023059;28;20209;-70
2023/07/10 08:56:33;;;;;;;5.80;2.17;;;;;;;;;;5025656;28;20607;-71
2023/07/10 08:59:16;;;;;;;7.22;2.17;;;;;;;;;;5028172;28;20285;-71
2023/07/10 09:01:46;;;;;;;8.82;2.55;;;;;;;;;;5022220;28;20205;-71
2023/07/10 09:04:15;;;;;;;10.40;2.17;;;;;;;;;;5025976;28;20198;-69
2023/07/10 09:06:48;;;;;;;11.07;2.53;;;;;;;;;;5027564;28;20197;-71
2023/07/10 09:09:33;;;;;;;6.75;2.30;;;;;;;;;;5024578;28;20200;-71
2023/07/10 09:12:04;;;;;;;8.20;2.13;;;;;;;;;;5020162;28;20723;-70
2023/07/10 09:14:38;;;;;;;11.95;2.45;;;;;;;;;;5026797;28;20189;-71
2023/07/10 09:17:26;;;;;;;6.20;2.17;;;;;;;;;;5012387;28;20195;-71
2023/07/10 09:19:59;;;;;;;8.35;2.35;;;;;;;;;;5027716;28;20605;-70
2023/07/10 09:22:25;;;;;;;5.10;1.98;;;;;;;;;;5023154;28;20273;-69
2023/07/10 09:24:50;;;;;;;5.75;2.15;;;;;;;;;;5025877;28;20645;-68
2023/07/10 09:27:16;;;;;;;8.00;2.13;;;;;;;;;;5026733;28;20244;-71
2023/07/10 09:29:45;;;;;;;6.05;1.85;;;;;;;;;;5025757;28;20670;-69
2023/07/10 09:32:24;;;;;;;5.60;2.10;;;;;;;;;;5019592;28;20229;-71
2023/07/10 09:34:58;;;;;;;7.65;1.77;;;;;;;;;;5013341;28;20474;-71
2023/07/10 09:37:33;;;;;;;5.78;2.00;;;;;;;;;;5021612;28;20195;-71
2023/07/10 09:40:17;;;;;;;7.32;2.17;;;;;;;;;;5015990;28;20598;-70
2023/07/10 09:42:43;;;;;;;6.45;1.95;;;;;;;;;;5024482;28;20269;-69
2023/07/10 09:45:09;;;;;;;6.82;2.15;;;;;;;;;;5024931;28;20277;-68
2023/07/10 09:47:48;;;;;;;5.05;1.67;;;;;;;;;;5026756;28;20209;-70
2023/07/10 09:50:17;;;;;;;7.97;1.88;;;;;;;;;;5031105;28;20597;-71
2023/07/10 09:52:51;;;;;;;6.35;2.00;;;;;;;;;;5022433;28;20667;-71
2023/07/10 09:55:18;;;;;;;10.07;2.58;;;;;;;;;;5025576;28;20182;-71
2023/07/10 09:57:50;;;;;;;7.15;1.90;;;;;;;;;;5018940;28;20187;-72
2023/07/10 10:00:20;;;;;;;3.67;1.67;;;;;;;;;;5030996;28;20190;-72
2023/07/10 10:02:53;;;;;;;8.63;1.83;;;;;;;;;;5026701;28;20202;-71
2023/07/10 10:05:20;;;;;;;6.32;2.00;;;;;;;;;;5020902;28;20228;-70
2023/07/10 10:07:49;;;;;;;6.32;1.90;;;;;;;;;;5029294;28;20289;-68
2023/07/10 10:10:27;;;;;;;7.70;1.92;;;;;;;;;;5031517;28;20711;-70
2023/07/10 10:13:29;;;;;;;6.38;1.73;;;;;;;;;;5021786;28;20190;-70
2023/07/10 10:16:03;;;;;;;7.55;2.00;;;;;;;;;;5004603;28;20193;-71
2023/07/10 10:18:49;;;;;;;4.45;1.73;;;;;;;;;;5023209;28;20214;-72
2023/07/10 10:21:16;;;;;;;5.93;1.60;;;;;;;;;;5028726;28;20206;-69
2023/07/10 10:23:46;;;;;;;5.38;1.80;;;;;;;;;;5027507;28;20202;-69
2023/07/10 10:26:35;;;;;;;8.85;2.30;;;;;;;;;;5013046;28;20194;-71
2023/07/10 10:29:39;;;;;;;5.93;2.10;;;;;;;;;;5027396;28;20289;-69
2023/07/10 10:32:35;;;;;;;5.68;1.73;;;;;;;;;;5020005;28;20193;-70
2023/07/10 10:35:47;;;;;;;6.18;1.90;;;;;;;;;;5028938;28;20201;-70
2023/07/10 10:38:30;;;;;;;5.00;1.50;;;;;;;;;;5013765;28;20875;-71
2023/07/10 10:41:04;;;;;;;8.65;2.08;;;;;;;;;;5023961;28;20679;-71
2023/07/10 10:43:43;;;;;;;9.80;2.10;;;;;;;;;;5023240;28;20206;-71
2023/07/10 10:46:26;;;;;;;7.97;1.75;;;;;;;;;;5024159;28;20197;-70
2023/07/10 10:49:20;;;;;;;5.53;1.50;;;;;;;;;;5021006;28;20182;-70
2023/07/10 10:52:01;;;;;;;7.15;2.03;;;;;;;;;;5025984;28;20214;-71
2023/07/10 10:55:18;;;;;;;5.35;2.20;;;;;;;;;;5022403;28;20657;-70
2023/07/10 10:58:14;;;;;;;7.40;1.67;;;;;;;;;;5010819;28;20220;-70
2023/07/10 11:00:50;;;;;;;4.45;1.58;;;;;;;;;;5022024;28;20218;-70
2023/07/10 11:03:16;;;;;;;6.00;1.63;;;;;;;;;;5019890;28;20194;-71
2023/07/10 11:05:44;;;;;;;7.28;1.92;;;;;;;;;;5029360;28;20202;-69
2023/07/10 11:08:22;;;;;;;9.10;1.98;;;;;;;;;;5016972;28;20182;-69
2023/07/10 11:10:51;;;;;;;3.47;1.60;;;;;;;;;;5021455;28;20705;-71
2023/07/10 11:13:37;;;;;;;5.85;1.92;;;;;;;;;;5024139;28;20178;-70
2023/07/10 11:16:04;;;;;;;5.57;1.92;;;;;;;;;;5021584;28;20186;-68
2023/07/10 11:18:34;;;;;;;7.43;1.80;;;;;;;;;;5024120;28;20194;-70
2023/07/10 11:21:01;;;;;;;8.77;2.00;;;;;;;;;;5024327;28;20232;-70
2023/07/10 11:23:41;;;;;;;7.13;1.90;;;;;;;;;;5018869;28;20689;-70
2023/07/10 11:26:14;;;;;;;7.68;2.10;;;;;;;;;;5022177;28;20206;-69
2023/07/10 11:28:49;;;;;;;7.90;2.15;;;;;;;;;;5026921;28;20251;-72
2023/07/10 11:31:40;;;;;;;6.22;1.95;;;;;;;;;;5020138;28;20245;-72
2023/07/10 11:34:05;;;;;;;5.55;2.22;;;;;;;;;;5015106;28;20195;-68
2023/07/10 11:36:31;;;;;;;6.25;2.10;;;;;;;;;;5014268;28;20186;-71
2023/07/10 11:39:09;;;;;;;4.50;1.60;;;;;;;;;;5023681;28;20193;-71
2023/07/10 11:41:44;;;;;;;6.32;1.90;;;;;;;;;;5018631;28;20663;-72
2023/07/10 11:44:21;;;;;;;9.93;2.25;;;;;;;;;;5014040;28;20198;-71
2023/07/10 11:46:59;;;;;;;5.82;1.70;;;;;;;;;;5026659;28;20767;-71
2023/07/10 11:49:34;;;;;;;6.40;1.90;;;;;;;;;;5022338;28;20196;-70
2023/07/10 11:52:15;;;;;;;7.03;1.85;;;;;;;;;;5026581;28;20593;-69
2023/07/10 11:54:49;;;;;;;8.57;2.17;;;;;;;;;;5017222;28;20685;-69
2023/07/10 11:57:25;;;;;;;7.30;2.30;;;;;;;;;;4324202;28;10001416;-68
2023/07/10 11:59:55;;;;;;;14.18;2.05;;;;;;;;;;5016000;28;20293;-70
2023/07/10 12:02:51;;;;;;;6.97;2.00;;;;;;;;;;5021910;28;20229;-70
2023/07/10 12:05:37;;;;;;;7.07;2.05;;;;;;;;;;5023447;28;20190;-72
2023/07/10 12:08:12;;;;;;;7.53;1.83;;;;;;;;;;5015083;28;20282;-71
2023/07/10 12:10:46;;;;;;;6.22;1.65;;;;;;;;;;5022300;28;20266;-69
2023/07/10 12:13:27;;;;;;;6.03;1.77;;;;;;;;;;5018668;28;20580;-71
2023/07/10 12:15:57;;;;;;;7.22;1.85;;;;;;;;;;5017836;28;20269;-71
2023/07/10 12:18:32;;;;;;;4.95;1.70;;;;;;;;;;5021758;28;20287;-71
2023/07/10 12:21:01;;;;;;;6.18;2.03;;;;;;;;;;5022146;28;20213;-71
2023/07/10 12:23:26;;;;;;;5.40;2.00;;;;;;;;;;5019494;28;20742;-71
2023/07/10 12:25:55;;;;;;;5.97;2.05;;;;;;;;;;5020642;28;20193;-71
2023/07/10 12:28:23;;;;;;;5.55;2.00;;;;;;;;;;5021293;28;20232;-70
2023/07/10 12:30:51;;;;;;;7.00;2.05;;;;;;;;;;5020285;28;20689;-70
2023/07/10 12:33:39;;;;;;;6.70;1.95;;;;;;;;;;5021217;28;20186;-72
2023/07/10 12:36:16;;;;;;;7.93;2.22;;;;;;;;;;5019399;28;20255;-71
2023/07/10 12:38:42;;;;;;;6.75;1.77;;;;;;;;;;5018773;28;20196;-69
2023/07/10 12:41:08;;;;;;;8.05;2.08;;;;;;;;;;5020653;28;20593;-71
2023/07/10 12:43:33;;;;;;;5.28;1.88;;;;;;;;;;5015136;28;20195;-72
2023/07/10 12:46:17;;;;;;;7.32;2.05;;;;;;;;;;5016822;28;20609;-70
2023/07/10 12:48:44;;;;;;;6.00;1.80;;;;;;;;;;5018896;28;20350;-71
2023/07/10 12:51:18;;;;;;;6.97;1.92;;;;;;;;;;5019414;28;20216;-70
2023/07/10 12:53:44;;;;;;;9.30;1.92;;;;;;;;;;5020671;28;20189;-71
2023/07/10 12:56:28;;;;;;;8.88;1.80;;;;;;;;;;5020872;28;20204;-71
2023/07/10 12:58:57;;;;;;;5.28;1.70;;;;;;;;;;5020006;28;20193;-72
2023/07/10 13:01:32;;;;;;;7.60;2.00;;;;;;;;;;5017536;28;20210;-72
2023/07/10 13:04:15;;;;;;;6.57;1.65;;;;;;;;;;5013332;28;20396;-69
2023/07/10 13:06:42;;;;;;;5.38;1.58;;;;;;;;;;5024692;28;20185;-73
2023/07/10 13:09:20;;;;;;;4.85;1.60;;;;;;;;;;5020495;28;20190;-71
2023/07/10 13:11:46;;;;;;;6.32;1.70;;;;;;;;;;5022412;28;20194;-71
2023/07/10 13:14:25;;;;;;;4.90;1.55;;;;;;;;;;5018453;28;20232;-71
2023/07/10 13:16:51;;;;;;;4.72;1.70;;;;;;;;;;5022859;28;20194;-72
2023/07/10 13:19:16;;;;;;;7.15;1.65;;;;;;;;;;5020903;28;20197;-71
2023/07/10 13:21:41;;;;;;;4.35;1.40;;;;;;;;;;5020199;28;20214;-72
2023/07/10 13:24:07;;;;;;;11.85;1.85;;;;;;;;;;5021188;28;20253;-72
2023/07/10 13:26:32;;;;;;;5.88;1.80;;;;;;;;;;5025613;28;20251;-72
2023/07/10 13:28:58;;;;;;;6.70;1.77;;;;;;;;;;5026448;28;20216;-71
2023/07/10 13:31:25;;;;;;;9.85;2.30;;;;;;;;;;5026029;28;20220;-71
2023/07/10 13:33:50;;;;;;;6.03;1.85;;;;;;;;;;5024098;28;20198;-70
2023/07/10 13:36:21;;;;;;;7.75;2.15;;;;;;;;;;5028014;28;20200;-72
2023/07/10 13:38:47;;;;;;;8.02;1.70;;;;;;;;;;5022538;28;20194;-71
2023/07/10 13:41:18;;;;;;;5.30;1.58;;;;;;;;;;5027401;28;20307;-71
2023/07/10 13:43:44;;;;;;;7.00;2.00;;;;;;;;;;5020055;28;20190;-70
2023/07/10 13:46:25;;;;;;;8.18;1.65;;;;;;;;;;5024747;28;20190;-70
2023/07/10 13:48:53;;;;;;;5.75;1.50;;;;;;;;;;5022378;28;20241;-73
2023/07/10 13:51:20;;;;;;;6.30;1.73;;;;;;;;;;5026784;28;20174;-71
2023/07/10 13:53:46;;;;;;;5.05;1.40;;;;;;;;;;5019482;28;20284;-71
2023/07/10 13:56:16;;;;;;;5.30;1.63;;;;;;;;;;5025672;28;20710;-72
2023/07/10 13:58:43;;;;;;;4.32;1.67;;;;;;;;;;5021542;28;20238;-71
2023/07/10 14:01:11;;;;;;;5.78;1.70;;;;;;;;;;5019547;28;20215;-72
2023/07/10 14:03:37;;;;;;;8.15;1.90;;;;;;;;;;5019611;28;20193;-71
2023/07/10 14:06:29;;;;;;;5.20;1.80;;;;;;;;;;5026366;28;20178;-72
2023/07/10 14:08:57;;;;;;;4.40;1.48;;;;;;;;;;5025930;28;20198;-74
2023/07/10 14:11:25;;;;;;;5.75;1.50;;;;;;;;;;5029071;28;20189;-71
2023/07/10 14:13:50;;;;;;;4.80;1.55;;;;;;;;;;5026922;28;20202;-69
2023/07/10 14:16:20;;;;;;;5.32;1.75;;;;;;;;;;5026943;28;20189;-68
2023/07/10 14:18:45;;;;;;;5.32;1.35;;;;;;;;;;5027355;28;20201;-68
2023/07/10 14:21:14;;;;;;;7.25;1.63;;;;;;;;;;5024658;28;20740;-71
2023/07/10 14:23:40;;;;;;;4.93;1.50;;;;;;;;;;5027381;28;20565;-71
2023/07/10 14:26:28;;;;;;;4.88;1.48;;;;;;;;;;5033063;28;20186;-71
2023/07/10 14:28:58;;;;;;;4.85;1.55;;;;;;;;;;5021379;28;20229;-71
2023/07/10 14:31:24;;;;;;;4.35;1.42;;;;;;;;;;5026262;28;20182;-71
2023/07/10 14:33:50;;;;;;;5.75;1.50;;;;;;;;;;5020991;28;20197;-71
2023/07/10 14:36:18;;;;;;;4.88;1.45;;;;;;;;;;5028432;28;20608;-71
2023/07/10 14:38:44;;;;;;;9.05;2.00;;;;;;;;;;5030107;28;20190;-75
2023/07/10 14:41:13;;;;;;;9.10;1.52;;;;;;;;;;5026218;28;20242;-71
2023/07/10 14:43:39;;;;;;;5.25;1.77;;;;;;;;;;5028246;28;20186;-71
2023/07/10 14:46:05;;;;;;;7.30;1.40;;;;;;;;;;5028684;28;20518;-70
2023/07/10 14:48:31;;;;;;;6.45;1.92;;;;;;;;;;5029689;28;20182;-71